createdAt,value
2023-02-20T00:02:51.671Z,7.22
2023-02-20T00:06:53.014Z,7.18
2023-02-20T00:10:54.386Z,7.23
2023-02-20T00:14:55.715Z,7.21
2023-02-20T00:18:58.418Z,7.26
2023-02-20T00:22:59.762Z,7.26
2023-02-20T00:27:01.089Z,7.20
2023-02-20T00:31:02.466Z,7.27
2023-02-20T00:35:05.459Z,7.26
2023-02-20T00:39:06.777Z,7.28
2023-02-20T00:43:08.170Z,7.29
2023-02-20T00:47:09.533Z,7.33
2023-02-20T00:51:12.484Z,7.32
2023-02-20T00:55:13.944Z,7.35
2023-02-20T00:59:15.293Z,7.37
2023-02-20T01:03:16.630Z,7.33
2023-02-20T01:07:19.363Z,7.34
2023-02-20T01:11:21.020Z,7.37
2023-02-20T01:15:22.389Z,7.41
2023-02-20T01:19:23.959Z,7.42
2023-02-20T01:23:26.674Z,7.38
2023-02-20T01:27:28.003Z,7.44
2023-02-20T01:31:29.482Z,7.37
2023-02-20T01:35:30.902Z,7.37
2023-02-20T01:39:33.594Z,7.35
2023-02-20T01:43:34.929Z,7.32
2023-02-20T01:47:36.259Z,7.24
2023-02-20T01:51:40.495Z,7.34
2023-02-20T01:55:44.377Z,7.36
2023-02-20T01:59:47.157Z,7.38
2023-02-20T02:03:50.317Z,7.39
2023-02-20T02:07:51.815Z,7.29
2023-02-20T02:11:54.613Z,7.37
2023-02-20T02:16:01.126Z,7.38
2023-02-20T02:20:19.314Z,7.29
2023-02-20T02:24:35.051Z,7.36
2023-02-20T02:28:54.444Z,7.38
2023-02-20T02:33:13.456Z,7.35
2023-02-20T02:37:19.384Z,7.31
2023-02-20T02:41:24.614Z,7.39
2023-02-20T02:45:29.722Z,7.39
2023-02-20T02:49:35.391Z,7.34
2023-02-20T02:53:38.108Z,7.34
2023-02-20T02:57:39.508Z,7.41
2023-02-20T03:01:43.665Z,7.37
2023-02-20T03:05:46.959Z,7.33
2023-02-20T03:09:51.583Z,7.18
2023-02-20T03:13:54.508Z,7.24
2023-02-20T03:17:59.531Z,7.29
2023-02-20T03:22:02.305Z,7.29
2023-02-20T03:26:05.768Z,7.30
2023-02-20T03:30:09.976Z,7.21
2023-02-20T03:34:14.354Z,7.23
2023-02-20T03:38:16.979Z,7.18
2023-02-20T03:42:20.848Z,7.25
2023-02-20T03:46:24.192Z,7.16
2023-02-20T03:50:25.777Z,7.17
2023-02-20T03:54:28.593Z,7.26
2023-02-20T03:58:33.796Z,7.28
2023-02-20T04:02:37.234Z,7.26
2023-02-20T04:06:40.246Z,7.29
2023-02-20T04:10:43.625Z,7.19
2023-02-20T04:14:47.761Z,7.22
2023-02-20T04:18:49.260Z,7.19
2023-02-20T04:22:53.045Z,7.18
2023-02-20T04:26:54.631Z,7.27
2023-02-20T04:30:57.549Z,7.24
2023-02-20T04:34:59.017Z,7.26
2023-02-20T04:39:00.365Z,7.22
2023-02-20T04:43:01.938Z,7.23
2023-02-20T04:47:06.157Z,7.27
2023-02-20T04:51:07.600Z,7.24
2023-02-20T04:55:08.947Z,7.26
2023-02-20T04:59:10.342Z,7.17
2023-02-20T05:03:13.064Z,7.17
2023-02-20T05:07:16.473Z,7.15
2023-02-20T05:11:17.839Z,7.17
2023-02-20T05:15:19.562Z,7.10
2023-02-20T05:19:22.295Z,7.19
2023-02-20T05:23:23.652Z,7.17
2023-02-20T05:27:25.239Z,7.15
2023-02-20T05:31:26.680Z,7.08
2023-02-20T05:35:29.465Z,7.09
2023-02-20T05:39:30.801Z,7.14
2023-02-20T05:43:32.156Z,7.10
2023-02-20T05:47:33.503Z,7.10
2023-02-20T05:51:36.357Z,7.17
2023-02-20T05:55:37.768Z,7.11
2023-02-20T05:59:39.371Z,7.15
2023-02-20T06:03:40.760Z,7.15
2023-02-20T06:07:44.457Z,7.10
2023-02-20T06:11:48.888Z,7.15
2023-02-20T06:15:50.259Z,7.14
2023-02-20T06:19:51.659Z,7.10
2023-02-20T06:23:54.993Z,7.06
2023-02-20T06:27:56.322Z,7.12
2023-02-20T06:31:58.348Z,7.16
2023-02-20T06:35:59.811Z,7.21
2023-02-20T06:40:03.514Z,7.23
2023-02-20T06:44:05.108Z,7.24
2023-02-20T06:48:06.490Z,7.22
2023-02-20T06:52:08.213Z,7.24
2023-02-20T06:56:11.720Z,7.19
2023-02-20T07:00:13.895Z,7.25
2023-02-20T07:04:16.825Z,7.13
2023-02-20T07:08:18.168Z,7.29
2023-02-20T07:12:20.892Z,7.37
2023-02-20T07:16:22.291Z,7.39
2023-02-20T07:20:23.658Z,7.49
2023-02-20T07:24:24.986Z,7.51
2023-02-20T07:28:27.676Z,7.48
2023-02-20T07:32:29.072Z,7.47
2023-02-20T07:36:30.527Z,7.49
2023-02-20T07:40:31.860Z,7.56
2023-02-20T07:44:34.542Z,7.64
2023-02-20T07:48:35.927Z,7.68
2023-02-20T07:52:37.264Z,7.76
2023-02-20T07:56:40.341Z,7.79
2023-02-20T08:00:43.023Z,7.64
2023-02-20T08:04:44.344Z,7.70
2023-02-20T08:08:47.468Z,7.78
2023-02-20T08:12:49.206Z,7.75
2023-02-20T08:16:51.912Z,7.78
2023-02-20T08:20:53.272Z,7.85
2023-02-20T08:24:54.647Z,7.82
2023-02-20T08:28:55.998Z,7.86
2023-02-20T08:32:58.686Z,7.90
2023-02-20T08:37:00.058Z,7.99
2023-02-20T08:41:03.434Z,7.96
2023-02-20T08:45:05.780Z,8.09
2023-02-20T08:49:08.497Z,8.30
2023-02-20T08:53:09.843Z,8.53
2023-02-20T08:57:11.216Z,8.72
2023-02-20T09:01:12.589Z,8.84
2023-02-20T09:05:15.872Z,8.92
2023-02-20T09:09:17.219Z,8.84
2023-02-20T09:13:18.605Z,8.96
2023-02-20T09:17:19.989Z,8.99
2023-02-20T09:21:22.697Z,9.04
2023-02-20T09:25:24.020Z,9.11
2023-02-20T09:29:25.499Z,9.34
2023-02-20T09:33:27.980Z,9.72
2023-02-20T09:37:30.701Z,9.90
2023-02-20T09:41:38.036Z,9.73
2023-02-20T09:45:41.117Z,9.63
2023-02-20T09:49:42.599Z,9.49
2023-02-20T09:53:51.396Z,9.44
2023-02-20T09:57:54.172Z,9.60
2023-02-20T10:01:57.826Z,9.75
2023-02-20T10:05:59.526Z,9.88
2023-02-20T10:10:06.123Z,9.86
2023-02-20T10:14:14.507Z,9.84
2023-02-20T10:18:19.715Z,9.71
2023-02-20T10:22:23.451Z,9.75
2023-02-20T10:26:29.194Z,9.81
2023-02-20T10:30:32.552Z,9.91
2023-02-20T10:34:37.727Z,10.08
2023-02-20T10:38:42.612Z,10.20
2023-02-20T10:42:47.742Z,10.21
2023-02-20T10:46:52.183Z,10.20
2023-02-20T10:50:55.828Z,10.23
2023-02-20T10:55:02.392Z,10.41
2023-02-20T10:59:08.176Z,10.58
2023-02-20T11:03:12.376Z,10.93
2023-02-20T11:07:14.548Z,11.12
2023-02-20T11:11:20.750Z,11.21
2023-02-20T11:15:25.201Z,11.46
2023-02-20T11:19:30.352Z,11.72
2023-02-20T11:23:36.404Z,11.81
2023-02-20T11:27:37.867Z,11.85
2023-02-20T11:31:41.091Z,11.98
2023-02-20T11:35:43.064Z,12.06
2023-02-20T11:39:47.341Z,12.01
2023-02-20T11:44:00.870Z,12.25
2023-02-20T11:48:11.448Z,12.17
2023-02-20T11:52:16.440Z,12.11
2023-02-20T11:56:18.563Z,12.11
2023-02-20T12:00:20.903Z,12.08
2023-02-20T12:04:24.513Z,12.14
2023-02-20T12:08:34.140Z,12.22
2023-02-20T12:12:35.468Z,12.36
2023-02-20T12:16:54.167Z,12.41
2023-02-20T12:21:01.935Z,12.46
2023-02-20T12:25:10.316Z,12.56
2023-02-20T12:29:18.785Z,12.57
2023-02-20T12:33:40.944Z,12.32
2023-02-20T12:37:49.387Z,12.12
2023-02-20T12:41:57.362Z,12.04
2023-02-20T12:46:05.220Z,12.18
2023-02-20T12:50:30.430Z,12.46
2023-02-20T12:54:37.536Z,12.66
2023-02-20T12:58:46.292Z,12.83
2023-02-20T13:02:49.994Z,12.69
2023-02-20T13:06:54.504Z,12.58
2023-02-20T13:10:57.779Z,12.73
2023-02-20T13:15:05.178Z,12.84
2023-02-20T13:19:11.361Z,12.68
2023-02-20T13:23:26.595Z,12.77
2023-02-20T13:27:30.532Z,12.83
2023-02-20T13:31:43.659Z,13.01
2023-02-20T13:35:49.858Z,13.17
2023-02-20T13:39:51.293Z,13.34
2023-02-20T13:43:53.997Z,13.43
2023-02-20T13:48:16.424Z,13.56
2023-02-20T13:52:35.662Z,13.67
2023-02-20T13:56:43.564Z,13.78
2023-02-20T14:00:51.331Z,13.93
2023-02-20T14:04:53.855Z,13.82
2023-02-20T14:09:07.577Z,13.65
2023-02-20T14:13:13.127Z,13.72
2023-02-20T14:17:16.391Z,13.68
2023-02-20T14:21:19.405Z,13.62
2023-02-20T14:25:22.932Z,13.47
2023-02-20T14:29:25.196Z,13.41
2023-02-20T14:33:29.316Z,13.42
2023-02-20T14:37:34.156Z,13.29
2023-02-20T14:41:36.027Z,13.24
2023-02-20T14:45:37.489Z,13.21
2023-02-20T14:49:40.365Z,13.22
2023-02-20T14:53:42.361Z,13.12
2023-02-20T14:57:43.733Z,13.09
2023-02-20T15:01:45.123Z,13.11
2023-02-20T15:05:49.893Z,13.15
2023-02-20T15:10:03.841Z,13.15
2023-02-20T15:14:14.523Z,13.05
2023-02-20T15:18:16.969Z,12.93
2023-02-20T15:22:27.712Z,12.77
2023-02-20T15:26:31.026Z,12.73
2023-02-20T15:30:32.487Z,12.56
2023-02-20T15:34:35.105Z,12.57
2023-02-20T15:38:37.866Z,12.56
2023-02-20T15:42:39.229Z,12.57
2023-02-20T15:46:40.618Z,12.56
2023-02-20T15:50:42.037Z,12.50
2023-02-20T15:54:49.184Z,12.44
2023-02-20T15:58:50.643Z,12.34
2023-02-20T16:02:52.551Z,12.26
2023-02-20T16:06:53.966Z,12.20
2023-02-20T16:10:56.850Z,12.14
2023-02-20T16:14:58.196Z,12.05
2023-02-20T16:18:59.800Z,12.00
2023-02-20T16:23:01.255Z,11.86
2023-02-20T16:27:07.705Z,11.71
2023-02-20T16:31:13.812Z,11.76
2023-02-20T16:35:15.320Z,11.55
2023-02-20T16:39:25.726Z,11.22
2023-02-20T16:43:29.490Z,10.92
2023-02-20T16:47:31.143Z,10.66
2023-02-20T16:51:32.531Z,10.25
2023-02-20T16:55:34.886Z,10.01
2023-02-20T16:59:37.623Z,9.80
2023-02-20T17:03:38.997Z,9.52
2023-02-20T17:07:40.673Z,9.29
2023-02-20T17:11:42.041Z,9.01
2023-02-20T17:15:44.783Z,8.92
2023-02-20T17:19:46.165Z,8.77
2023-02-20T17:23:47.557Z,8.55
2023-02-20T17:27:49.279Z,8.39
2023-02-20T17:31:52.046Z,8.17
2023-02-20T17:35:53.518Z,8.15
2023-02-20T17:39:54.984Z,7.98
2023-02-20T17:43:56.319Z,7.78
2023-02-20T17:47:59.035Z,7.84
2023-02-20T17:52:00.379Z,7.42
2023-02-20T17:56:01.725Z,7.38
2023-02-20T18:00:05.060Z,7.25
2023-02-20T18:04:08.048Z,7.06
2023-02-20T18:08:09.453Z,6.96
2023-02-20T18:12:10.792Z,6.88
2023-02-20T18:16:12.805Z,6.72
2023-02-20T18:20:15.909Z,6.59
2023-02-20T18:24:18.483Z,6.49
2023-02-20T18:28:19.844Z,6.51
2023-02-20T18:32:21.249Z,6.38
2023-02-20T18:36:24.966Z,6.38
2023-02-20T18:40:27.010Z,6.27
2023-02-20T18:44:28.369Z,6.23
2023-02-20T18:48:29.752Z,6.12
2023-02-20T18:52:32.462Z,6.15
2023-02-20T18:56:34.132Z,6.05
2023-02-20T19:00:35.496Z,5.99
2023-02-20T19:04:36.845Z,6.01
2023-02-20T19:08:39.564Z,5.85
2023-02-20T19:12:40.894Z,5.86
2023-02-20T19:16:47.014Z,5.80
2023-02-20T19:20:48.444Z,5.66
2023-02-20T19:24:51.185Z,5.58
2023-02-20T19:28:52.556Z,5.27
2023-02-20T19:32:53.916Z,5.14
2023-02-20T19:36:55.263Z,5.20
2023-02-20T19:40:57.976Z,5.15
2023-02-20T19:44:59.671Z,5.12
2023-02-20T19:49:01.095Z,4.95
2023-02-20T19:53:02.617Z,4.92
2023-02-20T19:57:05.343Z,4.81
2023-02-20T20:01:06.719Z,4.70
2023-02-20T20:05:08.518Z,4.76
2023-02-20T20:09:16.653Z,4.82
2023-02-20T20:13:21.440Z,4.66
2023-02-20T20:17:22.788Z,4.61
2023-02-20T20:21:24.152Z,4.60
2023-02-20T20:25:25.493Z,4.55
2023-02-20T20:29:28.190Z,4.55
2023-02-20T20:33:29.537Z,4.45
2023-02-20T20:37:30.907Z,4.42
2023-02-20T20:41:43.966Z,4.46
2023-02-20T20:45:47.490Z,4.45
2023-02-20T20:49:48.910Z,4.43
2023-02-20T20:53:50.258Z,4.26
2023-02-20T20:57:52.857Z,4.31
2023-02-20T21:01:55.657Z,4.28
2023-02-20T21:05:57.092Z,4.24
2023-02-20T21:09:58.408Z,4.16
2023-02-20T21:13:59.782Z,4.13
2023-02-20T21:18:02.511Z,4.13
2023-02-20T21:22:04.354Z,4.19
2023-02-20T21:26:05.852Z,4.15
2023-02-20T21:30:07.990Z,4.10
2023-02-20T21:34:11.071Z,4.07
2023-02-20T21:38:12.436Z,4.02
2023-02-20T21:42:13.772Z,3.94
2023-02-20T21:46:15.154Z,4.02
2023-02-20T21:50:18.396Z,3.90
2023-02-20T21:54:20.531Z,3.91
2023-02-20T21:58:21.943Z,3.88
2023-02-20T22:02:23.296Z,3.90
2023-02-20T22:06:26.191Z,3.86
2023-02-20T22:10:27.516Z,3.82
2023-02-20T22:14:28.892Z,3.85
2023-02-20T22:18:30.227Z,3.74
2023-02-20T22:22:32.958Z,3.74
2023-02-20T22:26:35.081Z,3.67
2023-02-20T22:30:36.449Z,3.65
2023-02-20T22:34:37.844Z,3.69
2023-02-20T22:38:40.562Z,3.48
2023-02-20T22:42:41.916Z,3.47
2023-02-20T22:46:43.292Z,3.52
2023-02-20T22:50:44.730Z,3.44
2023-02-20T22:55:02.574Z,3.36
2023-02-20T22:59:05.595Z,3.36
2023-02-20T23:03:06.941Z,3.35
2023-02-20T23:07:08.279Z,3.25
2023-02-20T23:11:11.058Z,3.27
2023-02-20T23:15:12.430Z,3.02
2023-02-20T23:19:13.759Z,2.87
2023-02-20T23:23:15.432Z,2.76
2023-02-20T23:27:18.148Z,2.77
2023-02-20T23:31:19.523Z,2.80
2023-02-20T23:35:21.120Z,2.84
2023-02-20T23:39:22.457Z,2.79
2023-02-20T23:43:27.541Z,2.73
2023-02-20T23:47:28.907Z,2.58
2023-02-20T23:51:31.437Z,2.65
2023-02-20T23:55:32.793Z,2.59
2023-02-20T23:59:35.510Z,2.57
